»·PEaware :: QXE2195 KGEG-KPDX

QXE2195 :: KGEG-KPDX

FLIGHT INFORMATION

Flight Status: Arrived
Operator:
Horizon Air
More flights by this operator :: More flights under this callsign
Pilot: Adlai G. (28854)
Aircraft: DEHAVILLAND DASH 8 400
(DH8D)
More flights by this aircraft type
Origin: KGEG Spokane Intl
United States
Destination: KPDX Portland Intl
United States
More flights between these airports :: More routes between these airports
Route: GEG6 ZEGRO YENTL HHOOD4
File this flight plan on PilotEdge
Remarks:
Altitude:
(Current/Filed)
24,000ft
Speed:
(Current/Filed)
354kts
Departed: 23-Dec-21 11:01 AM
Arrived: 23-Dec-21 12:11 PM
Distance/Time
Traveled:
242nm/1:10
Distance/Time
To Go:
Arrived

Flight Plot

Page will automatically refresh every two minutes.

Flight plan parsing failed; only flown route is shown


Map Options




Map Legend


Flown Route
Filed Route
Departure Airport
Arrival Airport
Navaid (VOR, NDB)
Fix

Horizontal Profiles

Position Reports

Time Latitude Longitude Heading Altitude Ground
Speed
23-Dec-21 10:26 47.623150 -117.538344 338 2379ft 0kts
23-Dec-21 10:27 47.623150 -117.538344 338 2379ft 0kts
23-Dec-21 10:28 47.623150 -117.538344 338 2379ft 0kts
23-Dec-21 10:29 47.623150 -117.538344 338 2379ft 0kts
23-Dec-21 10:30 47.623150 -117.538344 338 2379ft 0kts
23-Dec-21 10:31 47.623150 -117.538344 338 2379ft 0kts
23-Dec-21 10:32 47.623150 -117.538344 338 2379ft 0kts
23-Dec-21 10:33 47.623150 -117.538344 338 2379ft 0kts
23-Dec-21 10:34 47.623150 -117.538344 338 2379ft 0kts
23-Dec-21 10:35 47.623150 -117.538344 338 2379ft 0kts
23-Dec-21 10:36 47.623150 -117.538344 338 2379ft 0kts
23-Dec-21 10:37 47.623150 -117.538344 338 2379ft 0kts
23-Dec-21 10:38 47.623150 -117.538344 338 2379ft 0kts
23-Dec-21 10:39 47.623150 -117.538344 338 2379ft 0kts
23-Dec-21 10:40 47.623150 -117.538344 338 2379ft 0kts
23-Dec-21 10:41 47.623150 -117.538344 338 2379ft 0kts
23-Dec-21 10:42 47.623150 -117.538344 338 2379ft 0kts
23-Dec-21 10:43 47.623150 -117.538344 338 2379ft 0kts
23-Dec-21 10:44 47.623150 -117.538344 338 2379ft 0kts
23-Dec-21 10:45 47.623150 -117.538344 338 2379ft 0kts
23-Dec-21 10:46 47.623150 -117.538344 338 2379ft 0kts
23-Dec-21 10:47 47.623150 -117.538344 338 2379ft 0kts
23-Dec-21 10:48 47.623150 -117.538344 338 2379ft 0kts
23-Dec-21 10:49 47.623101 -117.538315 341 2379ft 2kts
23-Dec-21 10:50 47.622986 -117.538837 139 2379ft 2kts
23-Dec-21 10:51 47.623012 -117.538870 139 2379ft 0kts
23-Dec-21 10:52 47.623012 -117.538870 139 2379ft 0kts
23-Dec-21 10:53 47.623012 -117.538870 139 2379ft 0kts
23-Dec-21 10:54 47.622438 -117.537956 129 2379ft 0kts
23-Dec-21 10:55 47.621842 -117.536399 51 2379ft 8kts
23-Dec-21 10:56 47.624963 -117.531677 45 2379ft 17kts
23-Dec-21 10:57 47.628529 -117.526324 45 2379ft 19kts
23-Dec-21 10:58 47.632094 -117.520951 45 2379ft 8kts
23-Dec-21 10:59 47.631588 -117.519032 135 2379ft 9kts
23-Dec-21 11:00 47.627986 -117.523169 225 2380ft 85kts
23-Dec-21 11:01 47.603342 -117.559054 226 4115ft 145kts
23-Dec-21 11:02 47.571179 -117.608571 225 6415ft 182kts
23-Dec-21 11:03 47.531683 -117.671515 225 8042ft 229kts
23-Dec-21 11:04 47.490160 -117.744792 230 9841ft 235kts
23-Dec-21 11:05 47.451080 -117.820344 233 11707ft 225kts
23-Dec-21 11:06 47.415918 -117.894117 235 13620ft 217kts
23-Dec-21 11:07 47.381670 -117.966139 234 15348ft 212kts
23-Dec-21 11:08 47.347915 -118.036699 234 16958ft 207kts
23-Dec-21 11:09 47.315617 -118.104410 234 18589ft 196kts
23-Dec-21 11:10 47.284129 -118.169295 234 19962ft 194kts
23-Dec-21 11:11 47.252685 -118.234290 234 21186ft 194kts
23-Dec-21 11:12 47.220980 -118.299253 234 22280ft 195kts
23-Dec-21 11:13 47.189031 -118.365011 234 23272ft 198kts
23-Dec-21 11:14 47.154399 -118.435788 235 23451ft 229kts
23-Dec-21 11:15 47.114996 -118.516320 235 23460ft 255kts
23-Dec-21 11:17 47.072085 -118.603772 235 23465ft 272kts
23-Dec-21 11:18 47.026923 -118.695262 235 23468ft 283kts
23-Dec-21 11:19 46.980219 -118.789788 235 23471ft 289kts
23-Dec-21 11:20 46.932931 -118.885071 235 23473ft 290kts
23-Dec-21 11:21 46.885367 -118.980449 235 23476ft 291kts
23-Dec-21 11:22 46.837630 -119.076082 235 23480ft 291kts
23-Dec-21 11:23 46.789815 -119.171390 235 23492ft 291kts
23-Dec-21 11:24 46.741870 -119.266733 235 23500ft 292kts
23-Dec-21 11:25 46.693778 -119.361963 235 23496ft 292kts
23-Dec-21 11:26 46.645751 -119.456749 235 23499ft 292kts
23-Dec-21 11:27 46.597620 -119.551411 235 23507ft 291kts
23-Dec-21 11:28 46.549599 -119.645547 235 23513ft 289kts
23-Dec-21 11:29 46.501639 -119.739249 235 23514ft 288kts
23-Dec-21 11:30 46.453898 -119.832213 235 23513ft 287kts
23-Dec-21 11:31 46.406205 -119.924794 234 23513ft 286kts
23-Dec-21 11:32 46.358799 -120.016635 234 23513ft 285kts
23-Dec-21 11:33 46.311013 -120.108260 235 23514ft 284kts
23-Dec-21 11:34 46.263771 -120.199450 235 23515ft 284kts
23-Dec-21 11:35 46.216170 -120.290622 234 23518ft 284kts
23-Dec-21 11:36 46.168480 -120.381558 235 23522ft 285kts
23-Dec-21 11:37 46.120443 -120.472923 235 23527ft 286kts
23-Dec-21 11:38 46.072131 -120.564613 235 23535ft 289kts
23-Dec-21 11:39 46.023085 -120.657193 235 23546ft 295kts
23-Dec-21 11:40 45.972686 -120.752076 236 23559ft 301kts
23-Dec-21 11:40 45.930627 -120.831646 235 23567ft 301kts
23-Dec-21 11:42 45.871109 -120.942415 236 23582ft 301kts
23-Dec-21 11:43 45.819870 -121.038029 236 23593ft 303kts
23-Dec-21 11:44 45.767788 -121.135250 236 22222ft 310kts
23-Dec-21 11:44 45.724819 -121.215383 235 20727ft 302kts
23-Dec-21 11:45 45.674316 -121.308765 234 18929ft 292kts
23-Dec-21 11:47 45.618175 -121.412375 236 16954ft 273kts
23-Dec-21 11:48 45.586842 -121.511475 247 15941ft 276kts
23-Dec-21 11:48 45.562950 -121.595911 247 15050ft 274kts
23-Dec-21 11:49 45.535570 -121.693511 249 14415ft 254kts
23-Dec-21 11:50 45.532818 -121.794209 267 13917ft 256kts
23-Dec-21 11:51 45.535887 -121.895673 269 13420ft 257kts
23-Dec-21 11:53 45.549724 -122.013741 281 12836ft 262kts
23-Dec-21 11:53 45.566999 -122.096371 282 12028ft 259kts
23-Dec-21 11:54 45.587201 -122.193682 282 10343ft 254kts
23-Dec-21 11:55 45.607000 -122.289460 283 8773ft 246kts
23-Dec-21 11:56 45.626238 -122.381747 283 7827ft 238kts
23-Dec-21 11:57 45.645900 -122.470691 291 6900ft 230kts
23-Dec-21 11:58 45.673731 -122.548754 293 5742ft 211kts
23-Dec-21 11:59 45.700373 -122.623216 294 4801ft 208kts
23-Dec-21 12:00 45.726806 -122.696269 295 4088ft 207kts
23-Dec-21 12:01 45.753007 -122.768393 295 3980ft 198kts
23-Dec-21 12:02 45.777317 -122.839452 292 3974ft 201kts
23-Dec-21 12:03 45.777348 -122.910714 215 3981ft 207kts
23-Dec-21 12:04 45.722555 -122.912358 141 3793ft 230kts
23-Dec-21 12:05 45.682515 -122.840627 125 3283ft 227kts
23-Dec-21 12:06 45.651501 -122.767113 120 2281ft 203kts
23-Dec-21 12:07 45.627970 -122.705733 119 1354ft 157kts
23-Dec-21 12:08 45.610007 -122.659480 121 664ft 123kts
23-Dec-21 12:09 45.593596 -122.617475 120 39ft 114kts
23-Dec-21 12:10 45.589502 -122.604685 45 37ft 1kts
23-Dec-21 12:11 45.589630 -122.604501 45 37ft 1kts
23-Dec-21 12:12 45.588346 -122.600659 119 37ft 12kts
23-Dec-21 12:13 45.590214 -122.601667 27 37ft 8kts
23-Dec-21 12:14 45.591023 -122.599289 177 37ft 3kts
23-Dec-21 12:15 45.590715 -122.599274 178 37ft 0kts
23-Dec-21 12:16 45.590715 -122.599274 178 37ft 0kts
23-Dec-21 12:17 45.590715 -122.599274 178 37ft 0kts
23-Dec-21 12:18 45.590715 -122.599274 178 37ft 0kts

Navigation Log

Ident Type
Flight plan parsing failed, navigation log unavailable